sensor_id;sensor_type;location;lat;lon;timestamp;temperature;humidity
39315;DHT22;28703;44.412;11.918;2023-06-19T00:01:20;25.40;95.10
39315;DHT22;28703;44.412;11.918;2023-06-19T00:03:46;25.40;95.20
39315;DHT22;28703;44.412;11.918;2023-06-19T00:06:12;25.40;95.20
39315;DHT22;28703;44.412;11.918;2023-06-19T00:08:38;25.30;95.30
39315;DHT22;28703;44.412;11.918;2023-06-19T00:11:07;25.30;95.40
39315;DHT22;28703;44.412;11.918;2023-06-19T00:13:33;25.30;95.50
39315;DHT22;28703;44.412;11.918;2023-06-19T00:16:02;25.20;95.50
39315;DHT22;28703;44.412;11.918;2023-06-19T00:18:28;25.20;95.60
39315;DHT22;28703;44.412;11.918;2023-06-19T00:20:54;25.20;95.60
39315;DHT22;28703;44.412;11.918;2023-06-19T00:23:24;25.10;95.70
39315;DHT22;28703;44.412;11.918;2023-06-19T00:25:50;25.10;95.70
39315;DHT22;28703;44.412;11.918;2023-06-19T00:28:16;25.10;95.80
39315;DHT22;28703;44.412;11.918;2023-06-19T00:30:45;25.10;95.60
39315;DHT22;28703;44.412;11.918;2023-06-19T00:33:13;25.10;95.50
39315;DHT22;28703;44.412;11.918;2023-06-19T00:35:39;25.10;95.60
39315;DHT22;28703;44.412;11.918;2023-06-19T00:38:07;25.00;95.40
39315;DHT22;28703;44.412;11.918;2023-06-19T00:40:34;25.10;95.30
39315;DHT22;28703;44.412;11.918;2023-06-19T00:43:00;25.10;95.20
39315;DHT22;28703;44.412;11.918;2023-06-19T00:45:26;25.00;95.20
39315;DHT22;28703;44.412;11.918;2023-06-19T00:47:53;25.10;95.20
39315;DHT22;28703;44.412;11.918;2023-06-19T00:50:23;25.00;95.10
39315;DHT22;28703;44.412;11.918;2023-06-19T00:52:49;25.00;94.90
39315;DHT22;28703;44.412;11.918;2023-06-19T00:55:16;25.00;94.80
39315;DHT22;28703;44.412;11.918;2023-06-19T00:57:42;25.00;94.80
39315;DHT22;28703;44.412;11.918;2023-06-19T01:00:09;24.90;94.70
39315;DHT22;28703;44.412;11.918;2023-06-19T01:02:39;24.90;94.70
39315;DHT22;28703;44.412;11.918;2023-06-19T01:05:05;24.90;94.70
39315;DHT22;28703;44.412;11.918;2023-06-19T01:10:09;24.90;94.70
39315;DHT22;28703;44.412;11.918;2023-06-19T01:12:40;24.90;94.50
39315;DHT22;28703;44.412;11.918;2023-06-19T01:15:10;24.90;94.50
39315;DHT22;28703;44.412;11.918;2023-06-19T01:17:37;24.80;94.30
39315;DHT22;28703;44.412;11.918;2023-06-19T01:20:03;24.80;94.20
39315;DHT22;28703;44.412;11.918;2023-06-19T01:22:37;24.80;94.10
39315;DHT22;28703;44.412;11.918;2023-06-19T01:25:05;24.80;94.10
39315;DHT22;28703;44.412;11.918;2023-06-19T01:27:31;24.80;94.00
39315;DHT22;28703;44.412;11.918;2023-06-19T01:30:00;24.70;94.00
39315;DHT22;28703;44.412;11.918;2023-06-19T01:35:19;24.70;93.80
39315;DHT22;28703;44.412;11.918;2023-06-19T01:37:48;24.60;93.80
39315;DHT22;28703;44.412;11.918;2023-06-19T01:40:15;24.60;93.80
39315;DHT22;28703;44.412;11.918;2023-06-19T01:42:42;24.50;93.70
39315;DHT22;28703;44.412;11.918;2023-06-19T01:45:08;24.50;93.70
39315;DHT22;28703;44.412;11.918;2023-06-19T01:47:35;24.50;93.60
39315;DHT22;28703;44.412;11.918;2023-06-19T01:50:02;24.50;93.70
39315;DHT22;28703;44.412;11.918;2023-06-19T01:52:29;24.40;93.70
39315;DHT22;28703;44.412;11.918;2023-06-19T01:54:54;24.40;93.60
39315;DHT22;28703;44.412;11.918;2023-06-19T01:57:21;24.40;93.50
39315;DHT22;28703;44.412;11.918;2023-06-19T01:59:47;24.40;93.50
39315;DHT22;28703;44.412;11.918;2023-06-19T02:02:12;24.40;93.50
39315;DHT22;28703;44.412;11.918;2023-06-19T02:04:38;24.30;93.50
39315;DHT22;28703;44.412;11.918;2023-06-19T02:07:04;24.30;93.50
39315;DHT22;28703;44.412;11.918;2023-06-19T02:09:30;24.30;93.40
39315;DHT22;28703;44.412;11.918;2023-06-19T02:11:56;24.20;93.30
39315;DHT22;28703;44.412;11.918;2023-06-19T02:14:22;24.20;93.30
39315;DHT22;28703;44.412;11.918;2023-06-19T02:16:48;24.20;93.30
39315;DHT22;28703;44.412;11.918;2023-06-19T02:19:14;24.20;93.40
39315;DHT22;28703;44.412;11.918;2023-06-19T02:21:41;24.20;93.40
39315;DHT22;28703;44.412;11.918;2023-06-19T02:24:06;24.20;93.30
39315;DHT22;28703;44.412;11.918;2023-06-19T02:26:32;24.10;93.30
39315;DHT22;28703;44.412;11.918;2023-06-19T02:28:58;24.10;93.30
39315;DHT22;28703;44.412;11.918;2023-06-19T02:31:24;24.00;93.30
39315;DHT22;28703;44.412;11.918;2023-06-19T02:33:50;24.00;93.30
39315;DHT22;28703;44.412;11.918;2023-06-19T02:36:18;24.00;93.40
39315;DHT22;28703;44.412;11.918;2023-06-19T02:38:46;24.00;93.30
39315;DHT22;28703;44.412;11.918;2023-06-19T02:41:12;24.00;93.30
39315;DHT22;28703;44.412;11.918;2023-06-19T02:43:40;24.00;93.20
39315;DHT22;28703;44.412;11.918;2023-06-19T02:46:06;23.90;93.20
39315;DHT22;28703;44.412;11.918;2023-06-19T02:48:33;23.90;93.20
39315;DHT22;28703;44.412;11.918;2023-06-19T02:50:59;23.90;93.30
39315;DHT22;28703;44.412;11.918;2023-06-19T02:53:25;23.80;93.20
39315;DHT22;28703;44.412;11.918;2023-06-19T02:55:51;23.80;93.30
39315;DHT22;28703;44.412;11.918;2023-06-19T02:58:17;23.70;93.30
39315;DHT22;28703;44.412;11.918;2023-06-19T03:00:44;23.70;93.30
39315;DHT22;28703;44.412;11.918;2023-06-19T03:03:09;23.70;93.30
39315;DHT22;28703;44.412;11.918;2023-06-19T03:05:35;23.70;93.30
39315;DHT22;28703;44.412;11.918;2023-06-19T03:08:02;23.70;93.40
39315;DHT22;28703;44.412;11.918;2023-06-19T03:10:27;23.70;93.30
39315;DHT22;28703;44.412;11.918;2023-06-19T03:12:56;23.70;93.30
39315;DHT22;28703;44.412;11.918;2023-06-19T03:15:31;23.70;93.40
39315;DHT22;28703;44.412;11.918;2023-06-19T03:18:25;23.60;93.40
39315;DHT22;28703;44.412;11.918;2023-06-19T03:20:58;23.60;93.40
39315;DHT22;28703;44.412;11.918;2023-06-19T03:23:31;23.60;93.50
39315;DHT22;28703;44.412;11.918;2023-06-19T03:26:00;23.60;93.40
39315;DHT22;28703;44.412;11.918;2023-06-19T03:28:27;23.60;93.40
39315;DHT22;28703;44.412;11.918;2023-06-19T03:30:54;23.60;93.50
39315;DHT22;28703;44.412;11.918;2023-06-19T03:33:23;23.60;93.50
39315;DHT22;28703;44.412;11.918;2023-06-19T03:35:49;23.60;93.50
39315;DHT22;28703;44.412;11.918;2023-06-19T03:38:35;23.50;93.60
39315;DHT22;28703;44.412;11.918;2023-06-19T03:41:02;23.50;93.60
39315;DHT22;28703;44.412;11.918;2023-06-19T03:43:28;23.50;93.60
39315;DHT22;28703;44.412;11.918;2023-06-19T03:45:54;23.50;93.60
39315;DHT22;28703;44.412;11.918;2023-06-19T03:48:20;23.50;93.60
39315;DHT22;28703;44.412;11.918;2023-06-19T03:50:46;23.50;93.70
39315;DHT22;28703;44.412;11.918;2023-06-19T03:53:11;23.50;93.70
39315;DHT22;28703;44.412;11.918;2023-06-19T03:55:37;23.50;93.70
39315;DHT22;28703;44.412;11.918;2023-06-19T03:58:03;23.40;93.70
39315;DHT22;28703;44.412;11.918;2023-06-19T04:00:29;23.40;93.70
39315;DHT22;28703;44.412;11.918;2023-06-19T04:02:56;23.40;93.70
39315;DHT22;28703;44.412;11.918;2023-06-19T04:05:22;23.40;93.70
39315;DHT22;28703;44.412;11.918;2023-06-19T04:07:48;23.40;93.70
39315;DHT22;28703;44.412;11.918;2023-06-19T04:10:14;23.40;93.70
39315;DHT22;28703;44.412;11.918;2023-06-19T04:12:40;23.40;93.70
39315;DHT22;28703;44.412;11.918;2023-06-19T04:15:07;23.40;93.70
39315;DHT22;28703;44.412;11.918;2023-06-19T04:17:33;23.40;93.80
39315;DHT22;28703;44.412;11.918;2023-06-19T04:19:59;23.40;93.80
39315;DHT22;28703;44.412;11.918;2023-06-19T04:22:25;23.40;93.90
39315;DHT22;28703;44.412;11.918;2023-06-19T04:24:51;23.40;94.00
39315;DHT22;28703;44.412;11.918;2023-06-19T04:27:17;23.40;94.00
39315;DHT22;28703;44.412;11.918;2023-06-19T04:29:44;23.40;94.00
39315;DHT22;28703;44.412;11.918;2023-06-19T04:32:09;23.40;94.10
39315;DHT22;28703;44.412;11.918;2023-06-19T04:34:38;23.40;94.10
39315;DHT22;28703;44.412;11.918;2023-06-19T04:37:04;23.40;94.10
39315;DHT22;28703;44.412;11.918;2023-06-19T04:39:30;23.40;94.10
39315;DHT22;28703;44.412;11.918;2023-06-19T04:41:56;23.40;94.10
39315;DHT22;28703;44.412;11.918;2023-06-19T04:44:22;23.40;94.00
39315;DHT22;28703;44.412;11.918;2023-06-19T04:46:48;23.40;94.00
39315;DHT22;28703;44.412;11.918;2023-06-19T04:49:14;23.50;94.10
39315;DHT22;28703;44.412;11.918;2023-06-19T04:51:41;23.50;94.10
39315;DHT22;28703;44.412;11.918;2023-06-19T04:54:07;23.60;94.10
39315;DHT22;28703;44.412;11.918;2023-06-19T04:56:33;23.60;94.10
39315;DHT22;28703;44.412;11.918;2023-06-19T04:58:58;23.60;94.10
39315;DHT22;28703;44.412;11.918;2023-06-19T05:01:28;23.70;94.20
39315;DHT22;28703;44.412;11.918;2023-06-19T05:03:54;23.70;94.30
39315;DHT22;28703;44.412;11.918;2023-06-19T05:06:23;23.70;94.40
39315;DHT22;28703;44.412;11.918;2023-06-19T05:08:49;23.80;94.30
39315;DHT22;28703;44.412;11.918;2023-06-19T05:11:15;23.80;94.30
39315;DHT22;28703;44.412;11.918;2023-06-19T05:13:41;23.90;94.60
39315;DHT22;28703;44.412;11.918;2023-06-19T05:16:07;23.90;94.40
39315;DHT22;28703;44.412;11.918;2023-06-19T05:18:32;23.90;94.40
39315;DHT22;28703;44.412;11.918;2023-06-19T05:20:58;23.90;94.40
39315;DHT22;28703;44.412;11.918;2023-06-19T05:23:24;24.00;94.50
39315;DHT22;28703;44.412;11.918;2023-06-19T05:25:50;24.00;94.50
39315;DHT22;28703;44.412;11.918;2023-06-19T05:28:16;24.00;94.40
39315;DHT22;28703;44.412;11.918;2023-06-19T05:30:42;24.10;94.50
39315;DHT22;28703;44.412;11.918;2023-06-19T05:33:08;24.10;94.50
39315;DHT22;28703;44.412;11.918;2023-06-19T05:35:35;24.20;94.60
39315;DHT22;28703;44.412;11.918;2023-06-19T05:38:01;24.20;94.60
39315;DHT22;28703;44.412;11.918;2023-06-19T05:40:27;24.20;94.60
39315;DHT22;28703;44.412;11.918;2023-06-19T05:42:54;24.20;94.40
39315;DHT22;28703;44.412;11.918;2023-06-19T05:45:21;24.30;94.20
39315;DHT22;28703;44.412;11.918;2023-06-19T05:47:47;24.30;94.10
39315;DHT22;28703;44.412;11.918;2023-06-19T05:50:13;24.40;94.00
39315;DHT22;28703;44.412;11.918;2023-06-19T05:52:38;24.40;93.90
39315;DHT22;28703;44.412;11.918;2023-06-19T05:55:09;24.40;93.80
39315;DHT22;28703;44.412;11.918;2023-06-19T05:57:35;24.50;93.80
39315;DHT22;28703;44.412;11.918;2023-06-19T06:00:01;24.50;93.80
39315;DHT22;28703;44.412;11.918;2023-06-19T06:02:27;24.60;93.90
39315;DHT22;28703;44.412;11.918;2023-06-19T06:04:54;24.70;93.90
39315;DHT22;28703;44.412;11.918;2023-06-19T06:07:22;24.70;93.90
39315;DHT22;28703;44.412;11.918;2023-06-19T06:09:48;24.80;93.80
39315;DHT22;28703;44.412;11.918;2023-06-19T06:12:13;24.80;93.80
39315;DHT22;28703;44.412;11.918;2023-06-19T06:14:40;24.90;93.80
39315;DHT22;28703;44.412;11.918;2023-06-19T06:17:07;25.00;93.70
39315;DHT22;28703;44.412;11.918;2023-06-19T06:19:33;25.10;93.70
39315;DHT22;28703;44.412;11.918;2023-06-19T06:21:59;25.20;93.40
39315;DHT22;28703;44.412;11.918;2023-06-19T06:24:25;25.20;93.30
39315;DHT22;28703;44.412;11.918;2023-06-19T06:26:50;25.30;93.20
39315;DHT22;28703;44.412;11.918;2023-06-19T06:29:17;25.30;92.80
39315;DHT22;28703;44.412;11.918;2023-06-19T06:31:46;25.40;93.00
39315;DHT22;28703;44.412;11.918;2023-06-19T06:34:12;25.40;92.90
39315;DHT22;28703;44.412;11.918;2023-06-19T06:36:39;25.50;92.80
39315;DHT22;28703;44.412;11.918;2023-06-19T06:39:05;25.40;92.60
39315;DHT22;28703;44.412;11.918;2023-06-19T06:41:31;25.50;92.60
39315;DHT22;28703;44.412;11.918;2023-06-19T06:43:57;25.50;92.60
39315;DHT22;28703;44.412;11.918;2023-06-19T06:46:23;25.50;92.60
39315;DHT22;28703;44.412;11.918;2023-06-19T06:48:50;25.60;92.60
39315;DHT22;28703;44.412;11.918;2023-06-19T06:51:15;25.60;92.50
39315;DHT22;28703;44.412;11.918;2023-06-19T06:53:41;25.60;92.60
39315;DHT22;28703;44.412;11.918;2023-06-19T06:56:07;25.60;92.70
39315;DHT22;28703;44.412;11.918;2023-06-19T06:58:33;25.60;92.70
39315;DHT22;28703;44.412;11.918;2023-06-19T07:00:59;25.60;92.70
39315;DHT22;28703;44.412;11.918;2023-06-19T07:03:25;25.70;92.80
39315;DHT22;28703;44.412;11.918;2023-06-19T07:05:51;25.70;92.80
39315;DHT22;28703;44.412;11.918;2023-06-19T07:08:17;25.80;92.90
39315;DHT22;28703;44.412;11.918;2023-06-19T07:10:43;25.90;93.00
39315;DHT22;28703;44.412;11.918;2023-06-19T07:13:09;25.90;93.10
39315;DHT22;28703;44.412;11.918;2023-06-19T07:15:35;25.90;93.20
39315;DHT22;28703;44.412;11.918;2023-06-19T07:18:01;26.00;93.30
39315;DHT22;28703;44.412;11.918;2023-06-19T07:20:27;26.00;93.20
39315;DHT22;28703;44.412;11.918;2023-06-19T07:22:53;26.10;93.20
39315;DHT22;28703;44.412;11.918;2023-06-19T07:25:19;26.10;93.10
39315;DHT22;28703;44.412;11.918;2023-06-19T07:27:45;26.10;93.00
39315;DHT22;28703;44.412;11.918;2023-06-19T07:30:11;26.20;92.80
39315;DHT22;28703;44.412;11.918;2023-06-19T07:32:37;26.20;92.70
39315;DHT22;28703;44.412;11.918;2023-06-19T07:35:04;26.20;92.60
39315;DHT22;28703;44.412;11.918;2023-06-19T07:37:30;26.30;92.50
39315;DHT22;28703;44.412;11.918;2023-06-19T07:39:56;26.30;92.20
39315;DHT22;28703;44.412;11.918;2023-06-19T07:42:22;26.40;92.40
39315;DHT22;28703;44.412;11.918;2023-06-19T07:44:48;26.40;92.70
39315;DHT22;28703;44.412;11.918;2023-06-19T07:47:16;26.50;92.90
39315;DHT22;28703;44.412;11.918;2023-06-19T07:49:44;26.50;93.00
39315;DHT22;28703;44.412;11.918;2023-06-19T07:52:09;26.60;93.20
39315;DHT22;28703;44.412;11.918;2023-06-19T07:54:36;26.60;93.10
39315;DHT22;28703;44.412;11.918;2023-06-19T07:57:02;26.70;93.00
39315;DHT22;28703;44.412;11.918;2023-06-19T07:59:28;26.70;93.00
39315;DHT22;28703;44.412;11.918;2023-06-19T08:01:54;26.70;92.80
39315;DHT22;28703;44.412;11.918;2023-06-19T08:04:19;26.80;92.70
39315;DHT22;28703;44.412;11.918;2023-06-19T08:06:45;26.80;92.50
39315;DHT22;28703;44.412;11.918;2023-06-19T08:09:11;26.90;92.50
39315;DHT22;28703;44.412;11.918;2023-06-19T08:11:37;26.90;92.30
39315;DHT22;28703;44.412;11.918;2023-06-19T08:14:03;26.90;92.30
39315;DHT22;28703;44.412;11.918;2023-06-19T08:16:29;26.90;92.30
39315;DHT22;28703;44.412;11.918;2023-06-19T08:18:55;27.00;92.30
39315;DHT22;28703;44.412;11.918;2023-06-19T08:21:21;27.00;92.10
39315;DHT22;28703;44.412;11.918;2023-06-19T08:23:48;27.00;91.90
39315;DHT22;28703;44.412;11.918;2023-06-19T08:26:13;27.00;91.80
39315;DHT22;28703;44.412;11.918;2023-06-19T08:28:39;27.10;91.80
39315;DHT22;28703;44.412;11.918;2023-06-19T08:31:07;27.10;91.00
39315;DHT22;28703;44.412;11.918;2023-06-19T08:33:34;27.10;90.50
39315;DHT22;28703;44.412;11.918;2023-06-19T08:36:01;27.20;89.80
39315;DHT22;28703;44.412;11.918;2023-06-19T08:38:26;27.20;88.00
39315;DHT22;28703;44.412;11.918;2023-06-19T08:40:53;27.20;87.90
39315;DHT22;28703;44.412;11.918;2023-06-19T08:43:21;27.30;87.70
39315;DHT22;28703;44.412;11.918;2023-06-19T08:46:09;27.30;87.60
39315;DHT22;28703;44.412;11.918;2023-06-19T08:48:38;27.40;87.10
39315;DHT22;28703;44.412;11.918;2023-06-19T08:51:05;27.50;88.10
39315;DHT22;28703;44.412;11.918;2023-06-19T08:53:35;27.50;87.70
39315;DHT22;28703;44.412;11.918;2023-06-19T08:56:04;27.50;87.60
39315;DHT22;28703;44.412;11.918;2023-06-19T08:58:30;27.50;87.80
39315;DHT22;28703;44.412;11.918;2023-06-19T09:00:59;27.50;88.00
39315;DHT22;28703;44.412;11.918;2023-06-19T09:03:25;27.50;88.20
39315;DHT22;28703;44.412;11.918;2023-06-19T09:05:51;27.50;88.10
39315;DHT22;28703;44.412;11.918;2023-06-19T09:08:18;27.50;88.20
39315;DHT22;28703;44.412;11.918;2023-06-19T09:11:18;27.50;88.20
39315;DHT22;28703;44.412;11.918;2023-06-19T09:13:44;27.60;88.10
39315;DHT22;28703;44.412;11.918;2023-06-19T09:16:09;27.50;88.90
39315;DHT22;28703;44.412;11.918;2023-06-19T09:18:46;27.60;88.50
39315;DHT22;28703;44.412;11.918;2023-06-19T09:21:19;27.60;88.20
39315;DHT22;28703;44.412;11.918;2023-06-19T09:23:47;27.60;88.30
39315;DHT22;28703;44.412;11.918;2023-06-19T09:26:15;27.60;88.50
39315;DHT22;28703;44.412;11.918;2023-06-19T09:28:42;27.70;88.50
39315;DHT22;28703;44.412;11.918;2023-06-19T09:31:08;27.70;88.30
39315;DHT22;28703;44.412;11.918;2023-06-19T09:33:35;27.80;88.10
39315;DHT22;28703;44.412;11.918;2023-06-19T09:36:02;27.80;87.80
39315;DHT22;28703;44.412;11.918;2023-06-19T09:38:34;27.80;87.70
39315;DHT22;28703;44.412;11.918;2023-06-19T09:41:02;27.90;87.70
39315;DHT22;28703;44.412;11.918;2023-06-19T09:43:43;27.90;87.90
39315;DHT22;28703;44.412;11.918;2023-06-19T09:46:11;28.00;87.50
39315;DHT22;28703;44.412;11.918;2023-06-19T09:48:43;27.90;87.40
39315;DHT22;28703;44.412;11.918;2023-06-19T09:51:25;28.00;87.60
39315;DHT22;28703;44.412;11.918;2023-06-19T09:53:54;28.00;87.10
39315;DHT22;28703;44.412;11.918;2023-06-19T09:56:22;28.00;87.20
39315;DHT22;28703;44.412;11.918;2023-06-19T09:58:52;28.00;87.10
39315;DHT22;28703;44.412;11.918;2023-06-19T10:01:19;28.10;87.20
39315;DHT22;28703;44.412;11.918;2023-06-19T10:03:46;28.20;87.40
39315;DHT22;28703;44.412;11.918;2023-06-19T10:06:16;28.20;87.10
39315;DHT22;28703;44.412;11.918;2023-06-19T10:08:44;28.30;86.30
39315;DHT22;28703;44.412;11.918;2023-06-19T10:11:11;28.30;86.20
39315;DHT22;28703;44.412;11.918;2023-06-19T10:13:39;28.40;86.60
39315;DHT22;28703;44.412;11.918;2023-06-19T10:16:27;28.40;86.80
39315;DHT22;28703;44.412;11.918;2023-06-19T10:18:52;28.50;86.80
39315;DHT22;28703;44.412;11.918;2023-06-19T10:21:19;28.60;86.60
39315;DHT22;28703;44.412;11.918;2023-06-19T10:24:15;28.60;86.60
39315;DHT22;28703;44.412;11.918;2023-06-19T10:26:44;28.70;86.20
39315;DHT22;28703;44.412;11.918;2023-06-19T10:29:19;28.60;85.60
39315;DHT22;28703;44.412;11.918;2023-06-19T10:31:44;28.70;85.30
39315;DHT22;28703;44.412;11.918;2023-06-19T10:34:11;28.70;84.80
39315;DHT22;28703;44.412;11.918;2023-06-19T10:36:37;28.60;84.40
39315;DHT22;28703;44.412;11.918;2023-06-19T10:39:03;28.70;84.10
39315;DHT22;28703;44.412;11.918;2023-06-19T10:41:30;28.60;84.60
39315;DHT22;28703;44.412;11.918;2023-06-19T10:44:02;28.70;84.40
39315;DHT22;28703;44.412;11.918;2023-06-19T10:46:35;28.70;84.20
39315;DHT22;28703;44.412;11.918;2023-06-19T10:49:02;28.70;84.00
39315;DHT22;28703;44.412;11.918;2023-06-19T10:51:41;28.80;84.50
39315;DHT22;28703;44.412;11.918;2023-06-19T10:54:09;28.90;84.40
39315;DHT22;28703;44.412;11.918;2023-06-19T10:56:35;29.00;84.70
39315;DHT22;28703;44.412;11.918;2023-06-19T10:59:04;29.10;85.00
39315;DHT22;28703;44.412;11.918;2023-06-19T11:04:06;29.30;86.10
39315;DHT22;28703;44.412;11.918;2023-06-19T11:06:32;29.30;84.90
39315;DHT22;28703;44.412;11.918;2023-06-19T11:08:58;29.30;84.40
39315;DHT22;28703;44.412;11.918;2023-06-19T11:11:47;29.40;84.70
39315;DHT22;28703;44.412;11.918;2023-06-19T11:14:14;29.60;86.30
39315;DHT22;28703;44.412;11.918;2023-06-19T11:16:43;29.70;85.20
39315;DHT22;28703;44.412;11.918;2023-06-19T11:19:16;29.70;84.30
39315;DHT22;28703;44.412;11.918;2023-06-19T11:21:46;29.80;83.90
39315;DHT22;28703;44.412;11.918;2023-06-19T11:24:13;29.80;83.60
39315;DHT22;28703;44.412;11.918;2023-06-19T11:26:41;29.90;83.30
39315;DHT22;28703;44.412;11.918;2023-06-19T11:29:31;30.00;83.40
39315;DHT22;28703;44.412;11.918;2023-06-19T11:32:09;30.00;82.90
39315;DHT22;28703;44.412;11.918;2023-06-19T11:34:39;30.10;82.50
39315;DHT22;28703;44.412;11.918;2023-06-19T11:37:18;30.10;82.50
39315;DHT22;28703;44.412;11.918;2023-06-19T11:39:45;30.20;81.30
39315;DHT22;28703;44.412;11.918;2023-06-19T11:42:11;30.20;81.50
39315;DHT22;28703;44.412;11.918;2023-06-19T11:47:20;30.20;80.10
39315;DHT22;28703;44.412;11.918;2023-06-19T11:49:48;30.20;80.70
39315;DHT22;28703;44.412;11.918;2023-06-19T11:52:14;30.20;80.20
39315;DHT22;28703;44.412;11.918;2023-06-19T11:54:41;30.20;81.30
39315;DHT22;28703;44.412;11.918;2023-06-19T11:57:08;30.40;81.60
39315;DHT22;28703;44.412;11.918;2023-06-19T11:59:41;30.50;81.90
39315;DHT22;28703;44.412;11.918;2023-06-19T12:02:09;30.60;83.40
39315;DHT22;28703;44.412;11.918;2023-06-19T12:04:35;30.70;83.80
39315;DHT22;28703;44.412;11.918;2023-06-19T12:07:01;30.90;84.30
39315;DHT22;28703;44.412;11.918;2023-06-19T12:09:30;31.00;84.40
39315;DHT22;28703;44.412;11.918;2023-06-19T12:11:56;31.20;84.20
39315;DHT22;28703;44.412;11.918;2023-06-19T12:14:21;31.30;83.60
39315;DHT22;28703;44.412;11.918;2023-06-19T12:16:50;31.50;83.90
39315;DHT22;28703;44.412;11.918;2023-06-19T12:19:16;31.60;82.80
39315;DHT22;28703;44.412;11.918;2023-06-19T12:21:42;31.70;82.40
39315;DHT22;28703;44.412;11.918;2023-06-19T12:24:08;31.80;82.10
39315;DHT22;28703;44.412;11.918;2023-06-19T12:26:35;31.90;82.40
39315;DHT22;28703;44.412;11.918;2023-06-19T12:29:05;32.10;82.50
39315;DHT22;28703;44.412;11.918;2023-06-19T12:31:33;32.20;82.70
39315;DHT22;28703;44.412;11.918;2023-06-19T12:33:59;32.30;82.50
39315;DHT22;28703;44.412;11.918;2023-06-19T12:36:27;32.50;81.90
39315;DHT22;28703;44.412;11.918;2023-06-19T12:38:54;32.60;81.90
39315;DHT22;28703;44.412;11.918;2023-06-19T12:41:21;32.70;82.30
39315;DHT22;28703;44.412;11.918;2023-06-19T12:43:49;32.80;81.80
39315;DHT22;28703;44.412;11.918;2023-06-19T12:46:16;32.80;81.00
39315;DHT22;28703;44.412;11.918;2023-06-19T12:48:44;32.80;80.70
39315;DHT22;28703;44.412;11.918;2023-06-19T12:51:19;32.80;79.90
39315;DHT22;28703;44.412;11.918;2023-06-19T12:53:46;32.80;78.80
39315;DHT22;28703;44.412;11.918;2023-06-19T12:56:13;32.80;78.20
39315;DHT22;28703;44.412;11.918;2023-06-19T12:58:40;32.80;77.70
39315;DHT22;28703;44.412;11.918;2023-06-19T13:01:07;32.70;77.00
39315;DHT22;28703;44.412;11.918;2023-06-19T13:03:33;32.70;75.80
39315;DHT22;28703;44.412;11.918;2023-06-19T13:05:59;32.60;74.80
39315;DHT22;28703;44.412;11.918;2023-06-19T13:08:25;32.60;73.10
39315;DHT22;28703;44.412;11.918;2023-06-19T13:10:51;32.60;73.80
39315;DHT22;28703;44.412;11.918;2023-06-19T13:13:17;32.60;74.50
39315;DHT22;28703;44.412;11.918;2023-06-19T13:15:43;32.80;75.30
39315;DHT22;28703;44.412;11.918;2023-06-19T13:18:08;32.80;75.60
39315;DHT22;28703;44.412;11.918;2023-06-19T13:20:34;33.00;75.40
39315;DHT22;28703;44.412;11.918;2023-06-19T13:23:00;33.10;75.20
39315;DHT22;28703;44.412;11.918;2023-06-19T13:25:26;33.20;75.30
39315;DHT22;28703;44.412;11.918;2023-06-19T13:27:52;33.40;74.70
39315;DHT22;28703;44.412;11.918;2023-06-19T13:30:19;33.50;74.70
39315;DHT22;28703;44.412;11.918;2023-06-19T13:32:45;33.60;73.80
39315;DHT22;28703;44.412;11.918;2023-06-19T13:35:10;33.60;72.50
39315;DHT22;28703;44.412;11.918;2023-06-19T13:37:37;33.60;72.80
39315;DHT22;28703;44.412;11.918;2023-06-19T13:40:07;33.60;72.20
39315;DHT22;28703;44.412;11.918;2023-06-19T13:42:33;33.60;72.20
39315;DHT22;28703;44.412;11.918;2023-06-19T13:45:01;33.70;72.40
39315;DHT22;28703;44.412;11.918;2023-06-19T13:47:27;33.80;72.40
39315;DHT22;28703;44.412;11.918;2023-06-19T13:49:53;33.80;71.70
39315;DHT22;28703;44.412;11.918;2023-06-19T13:52:20;33.90;72.10
39315;DHT22;28703;44.412;11.918;2023-06-19T13:54:45;34.00;72.80
39315;DHT22;28703;44.412;11.918;2023-06-19T13:57:11;34.00;72.60
39315;DHT22;28703;44.412;11.918;2023-06-19T13:59:37;34.00;71.80
39315;DHT22;28703;44.412;11.918;2023-06-19T14:02:03;34.00;72.40
39315;DHT22;28703;44.412;11.918;2023-06-19T14:04:29;34.00;72.30
39315;DHT22;28703;44.412;11.918;2023-06-19T14:06:55;34.10;72.90
39315;DHT22;28703;44.412;11.918;2023-06-19T14:09:21;34.10;72.90
39315;DHT22;28703;44.412;11.918;2023-06-19T14:11:47;34.30;73.20
39315;DHT22;28703;44.412;11.918;2023-06-19T14:14:13;34.30;73.10
39315;DHT22;28703;44.412;11.918;2023-06-19T14:16:39;34.40;73.50
39315;DHT22;28703;44.412;11.918;2023-06-19T14:19:04;34.50;74.20
39315;DHT22;28703;44.412;11.918;2023-06-19T14:21:30;34.60;74.30
39315;DHT22;28703;44.412;11.918;2023-06-19T14:23:56;34.70;73.90
39315;DHT22;28703;44.412;11.918;2023-06-19T14:26:22;34.70;74.20
39315;DHT22;28703;44.412;11.918;2023-06-19T14:28:48;34.80;74.20
39315;DHT22;28703;44.412;11.918;2023-06-19T14:31:14;34.90;74.40
39315;DHT22;28703;44.412;11.918;2023-06-19T14:33:40;34.90;73.80
39315;DHT22;28703;44.412;11.918;2023-06-19T14:36:06;35.00;73.70
39315;DHT22;28703;44.412;11.918;2023-06-19T14:38:33;35.00;73.90
39315;DHT22;28703;44.412;11.918;2023-06-19T14:41:02;35.10;74.10
39315;DHT22;28703;44.412;11.918;2023-06-19T14:43:28;35.20;73.70
39315;DHT22;28703;44.412;11.918;2023-06-19T14:45:55;35.30;73.70
39315;DHT22;28703;44.412;11.918;2023-06-19T14:48:21;35.40;73.60
39315;DHT22;28703;44.412;11.918;2023-06-19T14:50:47;35.50;73.50
39315;DHT22;28703;44.412;11.918;2023-06-19T14:53:13;35.50;72.70
39315;DHT22;28703;44.412;11.918;2023-06-19T14:55:39;35.50;71.40
39315;DHT22;28703;44.412;11.918;2023-06-19T14:58:09;35.60;71.40
39315;DHT22;28703;44.412;11.918;2023-06-19T15:00:34;35.60;71.00
39315;DHT22;28703;44.412;11.918;2023-06-19T15:03:04;35.70;71.40
39315;DHT22;28703;44.412;11.918;2023-06-19T15:05:31;35.80;71.60
39315;DHT22;28703;44.412;11.918;2023-06-19T15:07:57;35.90;71.60
39315;DHT22;28703;44.412;11.918;2023-06-19T15:10:23;36.00;71.60
39315;DHT22;28703;44.412;11.918;2023-06-19T15:12:49;36.00;71.50
39315;DHT22;28703;44.412;11.918;2023-06-19T15:15:14;36.20;71.80
39315;DHT22;28703;44.412;11.918;2023-06-19T15:17:40;36.30;70.90
39315;DHT22;28703;44.412;11.918;2023-06-19T15:20:07;36.40;70.20
39315;DHT22;28703;44.412;11.918;2023-06-19T15:22:34;36.50;70.40
39315;DHT22;28703;44.412;11.918;2023-06-19T15:25:03;36.50;70.20
39315;DHT22;28703;44.412;11.918;2023-06-19T15:27:29;36.60;70.00